createdAt,value
2023-04-08T00:02:07.615Z,9.10
2023-04-08T00:04:34.199Z,9.55
2023-04-08T00:07:00.655Z,6.18
2023-04-08T00:09:29.743Z,7.32
2023-04-08T00:11:57.193Z,10.75
2023-04-08T00:14:23.910Z,8.57
2023-04-08T00:16:50.348Z,11.65
2023-04-08T00:19:16.844Z,6.32
2023-04-08T00:21:45.474Z,7.47
2023-04-08T00:24:11.849Z,7.53
2023-04-08T00:26:38.192Z,5.72
2023-04-08T00:29:04.689Z,9.35
2023-04-08T00:31:33.619Z,9.75
2023-04-08T00:34:00.150Z,7.07
2023-04-08T00:36:29.654Z,7.13
2023-04-08T00:38:56.562Z,7.95
2023-04-08T00:41:23.042Z,8.23
2023-04-08T00:43:49.400Z,12.75
2023-04-08T00:46:15.949Z,11.00
2023-04-08T00:48:42.483Z,9.20
2023-04-08T00:51:09.279Z,5.72
2023-04-08T00:53:37.884Z,5.80
2023-04-08T00:56:04.496Z,7.57
2023-04-08T00:58:30.985Z,11.13
2023-04-08T01:01:15.164Z,6.72
2023-04-08T01:04:23.790Z,7.25
2023-04-08T01:06:53.746Z,6.20
2023-04-08T01:09:25.938Z,6.63
2023-04-08T01:11:57.193Z,5.25
2023-04-08T01:14:32.541Z,5.82
2023-04-08T01:17:01.014Z,10.05
2023-04-08T01:19:40.581Z,6.65
2023-04-08T01:22:23.205Z,6.03
2023-04-08T01:27:17.905Z,5.57
2023-04-08T01:29:47.489Z,3.72
2023-04-08T01:32:16.359Z,6.40
2023-04-08T01:34:44.179Z,6.40
2023-04-08T01:37:12.218Z,6.15
2023-04-08T01:39:41.456Z,3.90
2023-04-08T01:42:08.734Z,4.25
2023-04-08T01:44:40.238Z,6.05
2023-04-08T01:47:07.273Z,3.97
2023-04-08T01:49:34.128Z,5.85
2023-04-08T01:52:01.398Z,6.25
2023-04-08T01:54:32.554Z,4.22
2023-04-08T01:57:01.596Z,4.85
2023-04-08T01:59:31.521Z,5.20
2023-04-08T02:02:01.443Z,4.78
2023-04-08T02:04:28.322Z,5.15
2023-04-08T02:06:56.690Z,6.57
2023-04-08T02:09:25.344Z,7.45
2023-04-08T02:11:51.809Z,19.98
2023-04-08T02:14:18.274Z,8.70
2023-04-08T02:16:54.296Z,8.52
2023-04-08T02:19:29.512Z,11.65
2023-04-08T02:22:18.391Z,5.25
2023-04-08T02:24:46.979Z,6.70
2023-04-08T02:27:13.402Z,7.35
2023-04-08T02:29:41.782Z,9.88
2023-04-08T02:32:12.056Z,8.20
2023-04-08T02:34:40.602Z,8.32
2023-04-08T02:37:09.796Z,10.68
2023-04-08T02:39:41.069Z,5.70
2023-04-08T02:42:11.832Z,11.75
2023-04-08T02:44:38.413Z,6.50
2023-04-08T02:47:07.316Z,11.75
2023-04-08T02:49:33.758Z,9.18
2023-04-08T02:52:00.372Z,10.40
2023-04-08T02:54:29.181Z,14.32
2023-04-08T02:56:55.537Z,11.35
2023-04-08T02:59:21.949Z,14.85
2023-04-08T03:01:48.425Z,9.00
2023-04-08T03:04:14.919Z,9.90
2023-04-08T03:06:45.265Z,9.52
2023-04-08T03:09:11.877Z,12.02
2023-04-08T03:11:38.190Z,13.55
2023-04-08T03:14:04.547Z,17.67
2023-04-08T03:16:30.970Z,12.25
2023-04-08T03:19:04.583Z,12.65
2023-04-08T03:21:31.841Z,13.02
2023-04-08T03:23:58.256Z,10.50
2023-04-08T03:26:24.794Z,9.45
2023-04-08T03:28:55.560Z,7.82
2023-04-08T03:31:24.653Z,13.88
2023-04-08T03:33:51.259Z,14.73
2023-04-08T03:36:17.656Z,10.55
2023-04-08T03:38:44.735Z,19.08
2023-04-08T03:41:11.164Z,11.38
2023-04-08T03:43:38.130Z,12.00
2023-04-08T03:46:06.988Z,12.45
2023-04-08T03:48:35.756Z,11.00
2023-04-08T03:51:02.205Z,15.00
2023-04-08T03:53:29.359Z,11.75
2023-04-08T03:55:56.799Z,9.98
2023-04-08T03:58:23.584Z,12.43
2023-04-08T04:00:50.603Z,14.75
2023-04-08T04:03:17.258Z,13.73
2023-04-08T04:05:43.761Z,13.80
2023-04-08T04:08:10.207Z,13.88
2023-04-08T04:10:36.782Z,14.02
2023-04-08T04:13:03.462Z,15.82
2023-04-08T04:15:29.919Z,12.90
2023-04-08T04:17:56.386Z,17.63
2023-04-08T04:20:22.905Z,18.25
2023-04-08T04:22:49.255Z,16.33
2023-04-08T04:25:15.718Z,15.45
2023-04-08T04:27:42.128Z,18.00
2023-04-08T04:30:09.525Z,17.75
2023-04-08T04:32:38.230Z,15.85
2023-04-08T04:35:07.597Z,18.80
2023-04-08T04:37:33.991Z,16.85
2023-04-08T04:40:03.097Z,17.23
2023-04-08T04:42:29.508Z,15.15
2023-04-08T04:44:55.944Z,13.85
2023-04-08T04:47:22.442Z,19.60
2023-04-08T04:49:48.918Z,20.55
2023-04-08T04:52:15.362Z,16.60
2023-04-08T04:54:46.709Z,17.50
2023-04-08T04:57:14.913Z,15.07
2023-04-08T04:59:46.188Z,15.15
2023-04-08T05:02:14.543Z,13.88
2023-04-08T05:04:41.192Z,15.82
2023-04-08T05:07:11.328Z,15.35
2023-04-08T05:09:37.882Z,16.10
2023-04-08T05:12:04.682Z,17.48
2023-04-08T05:14:33.481Z,15.88
2023-04-08T05:16:59.849Z,15.90
2023-04-08T05:19:29.158Z,23.02
2023-04-08T05:21:55.632Z,16.33
2023-04-08T05:24:22.088Z,18.67
2023-04-08T05:26:52.262Z,16.08
2023-04-08T05:29:19.141Z,15.27
2023-04-08T05:31:45.643Z,16.17
2023-04-08T05:34:15.761Z,13.43
2023-04-08T05:36:44.446Z,16.33
2023-04-08T05:39:12.109Z,15.15
2023-04-08T05:41:38.471Z,15.15
2023-04-08T05:44:04.876Z,15.25
2023-04-08T05:46:31.283Z,15.77
2023-04-08T05:49:00.146Z,12.68
2023-04-08T05:51:26.616Z,12.90
2023-04-08T05:53:53.040Z,14.75
2023-04-08T05:56:19.400Z,13.30
2023-04-08T05:58:45.831Z,15.40
2023-04-08T06:01:12.247Z,11.90
2023-04-08T06:03:38.791Z,11.57
2023-04-08T06:06:11.711Z,14.05
2023-04-08T06:08:38.116Z,11.73
2023-04-08T06:11:05.324Z,15.95
2023-04-08T06:13:32.456Z,11.15
2023-04-08T06:16:10.468Z,11.68
2023-04-08T06:18:36.932Z,8.68
2023-04-08T06:21:03.435Z,10.98
2023-04-08T06:23:30.068Z,9.63
2023-04-08T06:25:56.506Z,7.57
2023-04-08T06:28:25.283Z,8.10
2023-04-08T06:30:51.762Z,12.18
2023-04-08T06:33:18.261Z,9.23
2023-04-08T06:35:44.716Z,13.13
2023-04-08T06:38:11.179Z,9.90
2023-04-08T06:40:39.458Z,8.77
2023-04-08T06:43:07.799Z,10.82
2023-04-08T06:45:35.019Z,9.35
2023-04-08T06:48:02.221Z,7.25
2023-04-08T06:50:28.671Z,9.70
2023-04-08T06:52:55.511Z,6.05
2023-04-08T06:55:21.949Z,9.38
2023-04-08T06:57:48.497Z,6.00
2023-04-08T07:00:15.080Z,12.65
2023-04-08T07:02:41.683Z,6.82
2023-04-08T07:05:11.128Z,8.18
2023-04-08T07:07:38.109Z,9.55
2023-04-08T07:10:04.873Z,6.88
2023-04-08T07:12:31.353Z,6.53
2023-04-08T07:15:00.592Z,10.35
2023-04-08T07:17:27.060Z,9.70
2023-04-08T07:19:55.925Z,7.35
2023-04-08T07:22:22.498Z,8.88
2023-04-08T07:24:49.803Z,9.52
2023-04-08T07:27:17.308Z,9.13
2023-04-08T07:29:44.327Z,7.72
2023-04-08T07:32:10.842Z,7.05
2023-04-08T07:34:39.825Z,7.72
2023-04-08T07:37:06.342Z,6.13
2023-04-08T07:39:32.804Z,7.50
2023-04-08T07:41:59.211Z,8.90
2023-04-08T07:44:25.672Z,6.75
2023-04-08T07:46:52.179Z,16.00
2023-04-08T07:49:18.766Z,8.13
2023-04-08T07:51:45.248Z,11.05
2023-04-08T07:54:12.622Z,7.53
2023-04-08T07:56:40.401Z,16.23
2023-04-08T07:59:07.023Z,9.18
2023-04-08T08:01:34.920Z,7.90
2023-04-08T08:04:04.343Z,9.77
2023-04-08T08:06:33.985Z,6.65
2023-04-08T08:09:01.077Z,8.23
2023-04-08T08:11:28.042Z,10.13
2023-04-08T08:13:54.460Z,8.23
2023-04-08T08:16:21.209Z,14.13
2023-04-08T08:18:52.494Z,9.63
2023-04-08T08:21:19.114Z,6.40
2023-04-08T08:23:47.126Z,8.10
2023-04-08T08:26:13.472Z,11.27
2023-04-08T08:28:40.340Z,13.63
2023-04-08T08:31:07.031Z,9.00
2023-04-08T08:33:33.915Z,9.82
2023-04-08T08:36:00.743Z,8.30
2023-04-08T08:38:27.191Z,8.45
2023-04-08T08:40:57.518Z,7.82
2023-04-08T08:43:29.040Z,9.50
2023-04-08T08:45:55.892Z,11.77
2023-04-08T08:48:22.393Z,9.05
2023-04-08T08:50:48.889Z,8.60
2023-04-08T08:53:15.440Z,6.78
2023-04-08T08:58:11.294Z,7.03
2023-04-08T09:00:39.835Z,7.30
2023-04-08T09:03:28.897Z,8.25
2023-04-08T09:05:59.715Z,8.35
2023-04-08T09:08:34.813Z,6.78
2023-04-08T09:11:17.835Z,10.77
2023-04-08T09:13:48.849Z,9.20
2023-04-08T09:16:18.300Z,11.60
2023-04-08T09:18:47.197Z,9.88
2023-04-08T09:21:17.548Z,5.90
2023-04-08T09:23:49.594Z,9.60
2023-04-08T09:26:22.880Z,11.82
2023-04-08T09:29:18.338Z,8.48
2023-04-08T09:31:59.376Z,10.07
2023-04-08T09:34:27.633Z,12.15
2023-04-08T09:36:57.206Z,6.43
2023-04-08T09:39:24.225Z,8.95
2023-04-08T09:41:57.051Z,7.97
2023-04-08T09:44:26.683Z,10.57
2023-04-08T09:47:08.366Z,7.60
2023-04-08T09:49:43.515Z,15.80
2023-04-08T09:52:13.760Z,10.48
2023-04-08T09:54:51.991Z,6.75
2023-04-08T09:58:01.310Z,7.32
2023-04-08T10:00:50.384Z,12.98
2023-04-08T10:03:38.769Z,10.93
2023-04-08T10:06:08.298Z,9.55
2023-04-08T10:08:35.930Z,8.77
2023-04-08T10:11:05.039Z,6.50
2023-04-08T10:13:35.295Z,11.50
2023-04-08T10:16:27.163Z,8.80
2023-04-08T10:18:57.204Z,9.65
2023-04-08T10:21:37.193Z,9.52
2023-04-08T10:24:09.806Z,9.07
2023-04-08T10:26:41.765Z,10.60
2023-04-08T10:29:28.410Z,8.65
2023-04-08T10:31:55.082Z,8.23
2023-04-08T10:34:24.634Z,8.68
2023-04-08T10:36:51.220Z,12.30
2023-04-08T10:39:17.784Z,11.13
2023-04-08T10:41:44.137Z,7.10
2023-04-08T10:44:21.518Z,7.97
2023-04-08T10:46:49.178Z,12.10
2023-04-08T10:49:17.412Z,10.80
2023-04-08T10:51:44.447Z,10.68
2023-04-08T10:54:13.479Z,9.20
2023-04-08T10:56:49.478Z,9.38
2023-04-08T10:59:17.956Z,8.75
2023-04-08T11:01:48.297Z,9.85
2023-04-08T11:04:16.980Z,10.45
2023-04-08T11:06:45.090Z,8.45
2023-04-08T11:09:11.932Z,9.38
2023-04-08T11:11:38.908Z,12.48
2023-04-08T11:14:08.756Z,9.27
2023-04-08T11:16:40.680Z,8.75
2023-04-08T11:19:09.779Z,7.80
2023-04-08T11:21:37.425Z,7.97
2023-04-08T11:24:09.906Z,9.85
2023-04-08T11:26:37.271Z,10.07
2023-04-08T11:29:06.911Z,9.05
2023-04-08T11:31:34.269Z,7.63
2023-04-08T11:34:00.756Z,7.00
2023-04-08T11:36:30.075Z,14.27
2023-04-08T11:38:56.988Z,11.45
2023-04-08T11:41:23.778Z,9.68
2023-04-08T11:43:54.983Z,11.90
2023-04-08T11:46:21.974Z,10.45
2023-04-08T11:49:16.286Z,7.97
2023-04-08T11:52:09.290Z,6.82
2023-04-08T11:54:41.838Z,9.10
2023-04-08T11:57:10.021Z,7.93
2023-04-08T11:59:36.674Z,6.22
2023-04-08T12:02:06.290Z,6.85
2023-04-08T12:04:34.130Z,5.22
2023-04-08T12:07:03.003Z,8.57
2023-04-08T12:09:29.426Z,16.17
2023-04-08T12:11:56.740Z,9.20
2023-04-08T12:14:28.278Z,6.50
2023-04-08T12:16:54.905Z,6.57
2023-04-08T12:19:21.599Z,7.15
2023-04-08T12:21:48.023Z,5.85
2023-04-08T12:24:14.509Z,4.85
2023-04-08T12:26:40.995Z,6.43
2023-04-08T12:29:11.718Z,4.85
2023-04-08T12:31:43.167Z,10.05
2023-04-08T12:34:14.124Z,5.35
2023-04-08T12:36:41.934Z,6.63
2023-04-08T12:39:08.842Z,5.18
2023-04-08T12:41:35.409Z,9.77
2023-04-08T12:44:01.861Z,10.00
2023-04-08T12:46:28.486Z,9.38
2023-04-08T12:49:03.172Z,7.60
2023-04-08T12:51:31.020Z,6.40
2023-04-08T12:53:57.577Z,9.93
2023-04-08T12:56:24.316Z,8.52
2023-04-08T12:58:53.317Z,4.30
2023-04-08T13:01:22.134Z,7.65
2023-04-08T13:03:51.505Z,14.65
2023-04-08T13:06:18.160Z,7.13
2023-04-08T13:08:44.722Z,7.22
2023-04-08T13:11:11.448Z,6.55
2023-04-08T13:13:37.927Z,4.70
2023-04-08T13:16:06.960Z,8.27
2023-04-08T13:18:33.534Z,6.20
2023-04-08T13:21:00.668Z,5.32
2023-04-08T13:23:27.481Z,6.47
2023-04-08T13:25:53.819Z,5.35
2023-04-08T13:28:22.823Z,6.72
2023-04-08T13:30:49.425Z,6.78
2023-04-08T13:33:16.156Z,6.20
2023-04-08T13:35:43.029Z,7.75
2023-04-08T13:38:09.670Z,11.02
2023-04-08T13:40:36.169Z,4.28
2023-04-08T13:43:04.963Z,6.63
2023-04-08T13:45:33.446Z,8.00
2023-04-08T13:47:59.937Z,9.57
2023-04-08T13:50:28.916Z,10.15
2023-04-08T13:52:55.402Z,7.30
2023-04-08T13:55:22.236Z,7.20
2023-04-08T13:57:51.112Z,13.73
2023-04-08T14:00:18.591Z,6.65
2023-04-08T14:02:45.128Z,4.30
2023-04-08T14:05:11.662Z,5.57
2023-04-08T14:07:38.025Z,7.88
2023-04-08T14:10:04.801Z,5.03
2023-04-08T14:12:31.306Z,4.07
2023-04-08T14:14:57.682Z,3.33
2023-04-08T14:17:24.325Z,2.20
2023-04-08T14:19:51.126Z,4.93
2023-04-08T14:22:19.053Z,4.43
2023-04-08T14:24:45.418Z,3.97
2023-04-08T14:27:11.802Z,2.60
2023-04-08T14:29:40.741Z,5.82
2023-04-08T14:32:07.167Z,7.65
2023-04-08T14:34:33.543Z,6.28
2023-04-08T14:37:02.110Z,5.90
2023-04-08T14:39:28.546Z,3.42
2023-04-08T14:41:54.976Z,5.03
2023-04-08T14:44:21.318Z,3.47
2023-04-08T14:46:47.988Z,4.32
2023-04-08T14:49:14.542Z,2.78
2023-04-08T14:51:41.035Z,4.30
2023-04-08T14:54:09.848Z,4.60
2023-04-08T14:56:36.438Z,4.10
2023-04-08T14:59:03.037Z,6.95
2023-04-08T15:01:32.198Z,7.43
2023-04-08T15:04:01.069Z,5.10
2023-04-08T15:06:27.661Z,4.47
2023-04-08T15:08:54.436Z,4.60
2023-04-08T15:11:21.864Z,4.07
2023-04-08T15:13:48.295Z,5.13
2023-04-08T15:16:14.804Z,10.52
2023-04-08T15:18:42.341Z,5.82
2023-04-08T15:21:09.007Z,5.75
2023-04-08T15:23:35.467Z,4.13
2023-04-08T15:26:03.956Z,5.70
2023-04-08T15:28:33.478Z,6.32
2023-04-08T15:30:59.903Z,9.02
2023-04-08T15:33:27.157Z,9.20
2023-04-08T15:35:53.721Z,5.65
2023-04-08T15:38:20.105Z,7.43
2023-04-08T15:40:48.215Z,5.15
2023-04-08T15:43:14.820Z,4.90
2023-04-08T15:45:44.671Z,5.45
2023-04-08T15:48:13.648Z,4.55
2023-04-08T15:50:40.172Z,5.53
2023-04-08T15:53:06.839Z,6.10
2023-04-08T15:55:42.464Z,5.35
2023-04-08T15:58:08.846Z,4.70
2023-04-08T16:00:35.402Z,15.65
2023-04-08T16:03:02.510Z,7.78
2023-04-08T16:05:30.274Z,5.47
2023-04-08T16:07:57.954Z,5.00
2023-04-08T16:10:24.396Z,4.05
2023-04-08T16:12:53.583Z,7.18
2023-04-08T16:15:20.104Z,5.32
2023-04-08T16:17:52.928Z,2.92
2023-04-08T16:20:21.702Z,3.50
2023-04-08T16:22:48.345Z,7.93
2023-04-08T16:25:15.633Z,5.80
2023-04-08T16:27:42.041Z,3.67
2023-04-08T16:30:09.209Z,3.90
2023-04-08T16:32:38.249Z,3.20
2023-04-08T16:35:05.538Z,3.92
2023-04-08T16:37:33.111Z,3.75
2023-04-08T16:39:59.620Z,4.90
2023-04-08T16:42:29.167Z,7.10
2023-04-08T16:44:57.218Z,7.13
2023-04-08T16:47:24.167Z,5.68
2023-04-08T16:49:53.650Z,3.75
2023-04-08T16:52:21.850Z,4.95
2023-04-08T16:54:53.383Z,4.15
2023-04-08T16:57:21.339Z,6.10
2023-04-08T16:59:50.305Z,6.47
2023-04-08T17:02:17.210Z,3.05
2023-04-08T17:04:44.224Z,7.32
2023-04-08T17:07:11.058Z,6.38
2023-04-08T17:09:39.011Z,5.03
2023-04-08T17:12:06.632Z,3.72
2023-04-08T17:14:35.981Z,21.10
2023-04-08T17:17:05.699Z,30.48
2023-04-08T17:19:32.618Z,16.65
2023-04-08T17:21:59.050Z,14.57
2023-04-08T17:24:25.498Z,8.38
2023-04-08T17:26:52.607Z,11.20
2023-04-08T17:29:19.038Z,6.18
2023-04-08T17:31:45.529Z,9.00
2023-04-08T17:34:14.226Z,6.40
2023-04-08T17:36:43.117Z,7.13
2023-04-08T17:39:09.587Z,8.05
2023-04-08T17:41:40.548Z,7.93
2023-04-08T17:44:08.192Z,13.65
2023-04-08T17:46:35.325Z,7.90
2023-04-08T17:49:01.977Z,6.28
2023-04-08T17:51:30.090Z,6.63
2023-04-08T17:53:56.773Z,5.72
2023-04-08T17:56:27.171Z,7.85
2023-04-08T17:58:53.662Z,6.68
2023-04-08T18:01:22.357Z,9.75
2023-04-08T18:03:54.832Z,9.75
2023-04-08T18:06:21.737Z,6.20
2023-04-08T18:08:50.591Z,6.38
2023-04-08T18:11:17.031Z,8.10
2023-04-08T18:13:43.516Z,8.45
2023-04-08T18:16:20.640Z,8.27
2023-04-08T18:18:47.788Z,8.43
2023-04-08T18:21:19.837Z,8.52
2023-04-08T18:23:49.303Z,10.90
2023-04-08T18:26:16.143Z,9.20
2023-04-08T18:28:42.705Z,9.40
2023-04-08T18:31:09.595Z,5.28
2023-04-08T18:33:36.368Z,6.45
2023-04-08T18:36:10.286Z,5.38
2023-04-08T18:38:37.025Z,11.10
2023-04-08T18:41:06.825Z,9.60
2023-04-08T18:43:33.854Z,7.28
2023-04-08T18:46:00.726Z,6.40
2023-04-08T18:48:27.384Z,7.05
2023-04-08T18:50:56.661Z,7.15
2023-04-08T18:53:23.226Z,6.13
2023-04-08T18:55:51.182Z,11.77
2023-04-08T18:58:22.221Z,6.80
2023-04-08T19:00:51.088Z,8.10
2023-04-08T19:03:17.526Z,7.28
2023-04-08T19:05:46.490Z,7.68
2023-04-08T19:08:12.908Z,12.38
2023-04-08T19:10:39.798Z,20.40
2023-04-08T19:13:06.514Z,19.75
2023-04-08T19:15:33.144Z,10.15
2023-04-08T19:18:00.609Z,13.85
2023-04-08T19:20:29.632Z,11.48
2023-04-08T19:22:56.448Z,6.72
2023-04-08T19:25:25.382Z,8.63
2023-04-08T19:27:51.787Z,7.53
2023-04-08T19:30:18.181Z,6.85
2023-04-08T19:32:45.924Z,8.23
2023-04-08T19:35:13.396Z,11.23
2023-04-08T19:37:43.123Z,7.55
2023-04-08T19:40:10.714Z,11.13
2023-04-08T19:42:41.737Z,15.40
2023-04-08T19:45:08.684Z,13.30
2023-04-08T19:47:37.310Z,10.27
2023-04-08T19:50:03.842Z,9.13
2023-04-08T19:52:31.486Z,13.10
2023-04-08T19:55:00.252Z,11.30
2023-04-08T19:57:26.829Z,6.88
2023-04-08T19:59:53.740Z,9.73
2023-04-08T20:02:25.750Z,11.73
2023-04-08T20:04:52.403Z,9.98
2023-04-08T20:07:18.984Z,13.65
2023-04-08T20:09:45.608Z,6.43
2023-04-08T20:12:12.051Z,6.20
2023-04-08T20:14:43.167Z,7.60
2023-04-08T20:17:12.545Z,5.13
2023-04-08T20:19:39.252Z,9.05
2023-04-08T20:22:05.753Z,7.32
2023-04-08T20:24:32.534Z,8.30
2023-04-08T20:27:01.410Z,9.35
2023-04-08T20:29:28.687Z,3.58
2023-04-08T20:31:55.134Z,4.80
2023-04-08T20:34:24.208Z,4.53
2023-04-08T20:36:51.009Z,5.97
2023-04-08T20:39:17.528Z,5.25
2023-04-08T20:41:44.274Z,5.38
2023-04-08T20:44:13.324Z,4.63
2023-04-08T20:46:39.831Z,3.85
2023-04-08T20:49:08.692Z,3.60
2023-04-08T20:51:35.203Z,4.10
2023-04-08T20:54:04.853Z,3.30
2023-04-08T20:56:31.360Z,3.13
2023-04-08T20:59:00.530Z,4.30
2023-04-08T21:01:27.203Z,5.70
2023-04-08T21:03:54.705Z,4.88
2023-04-08T21:06:21.782Z,4.00
2023-04-08T21:08:48.953Z,6.13
2023-04-08T21:11:15.954Z,207.85
2023-04-08T21:13:42.974Z,49.38
2023-04-08T21:16:09.599Z,140.98
2023-04-08T21:18:41.274Z,59.15
2023-04-08T21:21:14.827Z,180.65
2023-04-08T21:23:43.436Z,329.15
2023-04-08T21:26:13.582Z,164.95
2023-04-08T21:28:53.903Z,60.13
2023-04-08T21:31:21.228Z,8.00
2023-04-08T21:33:50.776Z,8.38
2023-04-08T21:36:18.668Z,9.98
2023-04-08T21:38:45.375Z,8.23
2023-04-08T21:41:11.931Z,14.35
2023-04-08T21:43:43.585Z,8.40
2023-04-08T21:46:13.156Z,6.65
2023-04-08T21:48:39.498Z,3.53
2023-04-08T21:51:09.068Z,8.45
2023-04-08T21:53:40.153Z,7.88
2023-04-08T21:56:12.738Z,11.77
2023-04-08T21:58:41.534Z,10.90
2023-04-08T22:01:15.529Z,13.38
2023-04-08T22:03:52.440Z,5.45
2023-04-08T22:06:31.486Z,7.40
2023-04-08T22:09:04.217Z,4.28
2023-04-08T22:11:30.779Z,7.45
2023-04-08T22:13:57.155Z,7.72
2023-04-08T22:16:26.303Z,11.48
2023-04-08T22:18:53.025Z,6.40
2023-04-08T22:21:22.624Z,7.05
2023-04-08T22:23:49.277Z,64.35
2023-04-08T22:26:16.040Z,49.00
2023-04-08T22:28:42.755Z,73.63
2023-04-08T22:31:11.488Z,122.35
2023-04-08T22:33:38.901Z,110.47
2023-04-08T22:36:05.848Z,41.92
2023-04-08T22:38:32.501Z,20.85
2023-04-08T22:40:58.930Z,14.65
2023-04-08T22:43:25.515Z,9.80
2023-04-08T22:45:52.312Z,9.73
2023-04-08T22:48:18.718Z,6.95
2023-04-08T22:50:45.310Z,5.47
2023-04-08T22:53:12.789Z,5.05
2023-04-08T22:55:39.303Z,6.32
2023-04-08T22:58:05.879Z,5.93
2023-04-08T23:00:32.356Z,5.30
2023-04-08T23:02:58.879Z,4.97
2023-04-08T23:05:27.701Z,8.05
2023-04-08T23:07:54.077Z,6.18
2023-04-08T23:10:20.495Z,7.57
2023-04-08T23:12:46.957Z,7.13
2023-04-08T23:15:16.413Z,7.38
2023-04-08T23:17:42.843Z,6.30
2023-04-08T23:20:09.517Z,6.47
2023-04-08T23:22:36.429Z,7.03
2023-04-08T23:25:02.813Z,6.88
2023-04-08T23:27:29.398Z,6.47
2023-04-08T23:29:55.905Z,5.95
2023-04-08T23:32:22.413Z,6.95
2023-04-08T23:34:49.045Z,11.63
2023-04-08T23:37:17.916Z,8.63
2023-04-08T23:39:44.280Z,9.32
2023-04-08T23:42:13.217Z,7.53
2023-04-08T23:44:39.844Z,6.85
2023-04-08T23:47:06.386Z,10.38
2023-04-08T23:49:32.740Z,9.35
2023-04-08T23:51:59.149Z,6.68
2023-04-08T23:54:30.325Z,7.50
2023-04-08T23:56:57.326Z,7.25
2023-04-08T23:59:23.746Z,10.07
